Time;durP1;ratioP1;P1;durP2;ratioP2;P2;SDS_P1;SDS_P2;PMS_P1;PMS_P2;Temp;Humidity;BMP_temperature;BMP_pressure;BME280_temperature;BME280_humidity;BME280_pressure;Samples;Min_cycle;Max_cycle;Signal;HPM_P1;HPM_P2
2022/02/03 00:03:00;;;;;;;4.43;3.78;;;;;;;1.03;100.00;93643.19;2067804;28;20046;-83
2022/02/03 00:04:09;;;;;;;3.63;3.33;;;;;;;1.00;100.00;93640.09;2100744;28;20035;-82
2022/02/03 00:05:22;;;;;;;2.92;2.70;;;;;;;1.00;100.00;93639.34;2089857;28;20061;-82
2022/02/03 00:06:46;;;;;;;3.53;3.10;;;;;;;1.00;100.00;93639.34;2084899;28;20108;-83
2022/02/03 00:10:07;;;;;;;3.90;3.10;;;;;;;1.03;100.00;93637.91;2109625;28;20053;-84
2022/02/03 00:29:17;;;;;;;3.45;3.13;;;;;;;0.94;100.00;93601.25;2097556;28;20041;-83
2022/02/03 00:30:21;;;;;;;6.45;3.95;;;;;;;0.94;100.00;93601.25;2082605;28;20040;-84
2022/02/03 00:31:41;;;;;;;4.53;3.33;;;;;;;0.94;100.00;93601.25;2087007;28;20404;-84
2022/02/03 00:48:36;;;;;;;10.18;4.75;;;;;;;1.00;100.00;93619.06;2102478;28;20121;-82
2022/02/03 00:49:50;;;;;;;5.63;3.92;;;;;;;1.06;100.00;93619.56;2095068;28;20060;-83
2022/02/03 00:52:48;;;;;;;19.05;5.28;;;;;;;0.96;100.00;93609.56;2111038;28;20049;-83
2022/02/03 00:53:49;;;;;;;37.15;5.15;;;;;;;0.99;100.00;93604.38;2089821;28;20041;-83
2022/02/03 00:54:51;;;;;;;12.45;5.30;;;;;;;0.96;100.00;93605.03;2079600;28;20021;-83
2022/02/03 00:55:54;;;;;;;9.45;4.45;;;;;;;1.03;100.00;93609.72;2082482;28;20029;-83
2022/02/03 00:57:09;;;;;;;13.80;5.28;;;;;;;1.03;100.00;93608.97;2086895;28;20029;-83
2022/02/03 00:58:13;;;;;;;12.05;5.28;;;;;;;1.00;100.00;93611.16;2082760;28;20033;-83
2022/02/03 00:59:27;;;;;;;13.98;4.90;;;;;;;1.08;100.00;93612.09;2081113;28;20102;-83
2022/02/03 01:00:32;;;;;;;12.43;5.93;;;;;;;1.09;100.00;93612.84;2083167;28;20079;-84
2022/02/03 01:01:38;;;;;;;16.90;5.43;;;;;;;1.05;100.00;93617.25;2079270;28;20055;-82
2022/02/03 01:05:47;;;;;;;6.90;5.07;;;;;;;0.99;100.00;93617.53;2107656;27;20048;-83
2022/02/03 01:06:52;;;;;;;8.73;5.47;;;;;;;0.95;100.00;93611.44;2093243;28;20514;-84
2022/02/03 01:08:00;;;;;;;5.72;4.85;;;;;;;1.04;100.00;93615.75;2086954;28;20676;-83
2022/02/03 01:09:06;;;;;;;5.03;4.15;;;;;;;1.04;100.00;93618.38;2092689;28;20020;-84
2022/02/03 01:10:15;;;;;;;6.00;4.65;;;;;;;1.06;100.00;93621.44;2085151;28;23066;-83
2022/02/03 01:11:24;;;;;;;5.32;4.78;;;;;;;1.25;100.00;93619.59;2078996;28;20531;-84
2022/02/03 01:12:40;;;;;;;9.77;4.80;;;;;;;1.14;100.00;93618.63;2088679;28;20044;-83
2022/02/03 01:18:37;;;;;;;5.15;4.65;;;;;;;1.06;100.00;93616.94;2052057;28;20051;-83
2022/02/03 01:43:52;;;;;;;4.68;2.85;;;;;;;1.10;100.00;93614.38;2068708;28;20940;-84
2022/02/03 01:45:04;;;;;;;3.55;2.85;;;;;;;0.98;100.00;93615.25;2058599;28;20046;-84
2022/02/03 01:46:13;;;;;;;3.28;2.45;;;;;;;0.90;100.00;93616.94;2057705;28;20046;-83
2022/02/03 01:48:39;;;;;;;;;;;;;;;0.89;100.00;93612.81;2093786;28;20066;-83
2022/02/03 01:51:53;;;;;;;2.90;2.63;;;;;;;0.93;100.00;93605.75;2101970;28;20392;-83
2022/02/03 01:52:55;;;;;;;2.92;2.70;;;;;;;0.97;100.00;93616.38;2049089;28;20062;-83
2022/02/03 01:53:58;;;;;;;2.72;2.45;;;;;;;1.01;100.00;93614.56;2043977;28;20039;-83
2022/02/03 01:55:00;;;;;;;2.20;2.00;;;;;;;1.21;100.00;93615.38;2079196;28;20024;-83
2022/02/03 01:56:06;;;;;;;2.40;2.20;;;;;;;1.17;100.00;93604.75;2080742;28;20029;-84
2022/02/03 01:57:18;;;;;;;2.95;2.22;;;;;;;1.12;100.00;93612.94;2087969;28;20037;-83
2022/02/03 01:58:29;;;;;;;2.33;2.13;;;;;;;1.13;100.00;93603.16;2086071;28;20515;-83
2022/02/03 01:59:31;;;;;;;2.20;2.00;;;;;;;1.18;100.00;93608.16;2092237;28;20044;-84
2022/02/03 02:04:21;;;;;;;3.88;2.20;;;;;;;1.05;100.00;93596.97;2065035;28;20054;-84
2022/02/03 02:05:35;;;;;;;1.75;1.65;;;;;;;1.04;100.00;93595.44;2099165;28;20411;-84
2022/02/03 02:11:33;;;;;;;2.20;2.00;;;;;;;0.95;100.00;93594.88;2109223;28;20047;-83
2022/02/03 02:12:45;;;;;;;1.75;1.65;;;;;;;1.00;100.00;93599.88;2089787;28;20037;-83
2022/02/03 02:16:31;;;;;;;1.70;1.60;;;;;;;1.15;100.00;93596.44;2089640;28;20041;-84
2022/02/03 02:39:06;;;;;;;2.55;2.25;;;;;;;1.02;100.00;93573.22;2098215;28;20836;-83
2022/02/03 02:46:25;;;;;;;3.85;2.97;;;;;;;0.98;100.00;93554.72;2098041;28;20056;-82
2022/02/03 02:52:07;;;;;;;7.00;3.85;;;;;;;0.98;100.00;93533.66;2099582;28;20486;-84
2022/02/03 02:53:28;;;;;;;5.18;3.17;;;;;;;1.04;100.00;93531.50;2080073;28;20054;-84
2022/02/03 03:00:42;;;;;;;3.88;2.70;;;;;;;1.05;100.00;93544.31;2060847;28;20042;-83
2022/02/03 03:36:31;;;;;;;2.92;2.60;;;;;;;0.85;100.00;93500.69;2070913;28;20054;-83
2022/02/03 03:39:50;;;;;;;3.45;3.03;;;;;;;0.82;100.00;93499.50;2106038;28;20123;-83
2022/02/03 03:40:55;;;;;;;4.22;2.83;;;;;;;0.80;100.00;93493.81;2090745;28;20036;-83
2022/02/03 03:42:02;;;;;;;4.15;2.88;;;;;;;0.81;100.00;93492.72;2045105;28;20068;-83
2022/02/03 03:43:06;;;;;;;4.15;2.80;;;;;;;0.81;100.00;93497.97;2046843;28;20023;-84
2022/02/03 03:44:11;;;;;;;2.83;2.22;;;;;;;0.86;100.00;93497.69;2040260;28;20809;-85
2022/02/03 03:45:12;;;;;;;4.93;2.75;;;;;;;0.85;100.00;93498.06;2050970;28;20067;-82
2022/02/03 03:46:26;;;;;;;4.32;2.83;;;;;;;0.73;100.00;93497.06;2042167;28;20485;-83
2022/02/03 03:47:31;;;;;;;5.15;3.67;;;;;;;0.78;100.00;93498.66;2053990;28;20066;-84
2022/02/03 03:50:47;;;;;;;6.15;4.18;;;;;;;0.90;100.00;93503.81;2077770;28;20050;-82
2022/02/03 03:51:56;;;;;;;4.70;4.25;;;;;;;0.91;100.00;93497.41;2064615;28;20046;-83
2022/02/03 03:53:07;;;;;;;4.70;3.47;;;;;;;0.84;100.00;93505.19;2051564;28;20058;-82
2022/02/03 03:54:16;;;;;;;4.50;4.03;;;;;;;0.84;100.00;93507.06;2053088;28;20146;-82
2022/02/03 03:55:35;;;;;;;4.18;3.00;;;;;;;0.87;100.00;93508.97;2063647;28;20038;-82
2022/02/03 03:56:47;;;;;;;3.45;3.15;;;;;;;0.88;100.00;93507.88;2052451;28;20142;-83
2022/02/03 03:59:22;;;;;;;3.38;3.05;;;;;;;0.91;100.00;93515.84;2076408;28;21417;-82
2022/02/03 04:30:48;;;;;;;2.90;2.63;;;;;;;1.02;100.00;93500.28;2081072;28;20041;-83
2022/02/03 05:25:19;;;;;;;19.02;3.97;;;;;;;1.06;100.00;93459.00;2065425;28;20050;-82
2022/02/03 05:44:41;;;;;;;;;;;;;;;0.95;100.00;93444.88;2066897;28;20188;-85
2022/02/03 05:49:00;;;;;;;9.32;3.92;;;;;;;0.95;100.00;93450.13;2057837;28;20117;-82
2022/02/03 05:52:58;;;;;;;3.78;3.45;;;;;;;0.97;100.00;93443.44;2081899;28;20045;-83
2022/02/03 06:06:23;;;;;;;34.30;3.13;;;;;;;0.82;100.00;93425.81;2059846;28;20038;-84
2022/02/03 06:15:18;;;;;;;18.00;4.53;;;;;;;1.16;100.00;93407.66;2060973;28;20061;-83
2022/02/03 06:22:55;;;;;;;29.63;7.65;;;;;;;0.77;100.00;93415.56;2104709;28;20459;-83
2022/02/03 06:24:15;;;;;;;42.28;7.32;;;;;;;0.80;100.00;93412.25;2085564;28;20075;-83
2022/02/03 06:27:45;;;;;;;7.88;4.93;;;;;;;0.73;100.00;93407.59;2058739;28;20138;-83
2022/02/03 06:28:48;;;;;;;58.17;4.88;;;;;;;0.69;100.00;93398.88;2043527;28;20047;-84
2022/02/03 06:32:47;;;;;;;42.55;6.63;;;;;;;0.62;100.00;93406.66;2107256;28;20051;-83
2022/02/03 06:33:56;;;;;;;20.88;4.60;;;;;;;0.66;100.00;93398.81;2091574;28;20053;-83
2022/02/03 06:34:57;;;;;;;16.05;5.97;;;;;;;0.64;100.00;93395.78;2077430;28;20057;-83
2022/02/03 06:35:58;;;;;;;33.95;6.72;;;;;;;0.63;100.00;93405.53;2081091;28;20128;-83
2022/02/03 06:36:59;;;;;;;130.93;6.65;;;;;;;0.56;100.00;93402.75;2058264;28;20026;-83
2022/02/03 06:38:00;;;;;;;53.03;5.47;;;;;;;0.55;100.00;93405.72;2056958;28;20335;-83
2022/02/03 06:39:01;;;;;;;9.75;4.65;;;;;;;0.54;100.00;93404.97;2062292;28;20041;-83
2022/02/03 06:40:04;;;;;;;71.57;5.35;;;;;;;0.52;100.00;93401.16;2041329;28;20035;-83
2022/02/03 06:41:05;;;;;;;137.93;6.18;;;;;;;0.54;100.00;93398.97;2038473;28;20544;-83
2022/02/03 06:42:08;;;;;;;66.70;4.13;;;;;;;0.61;100.00;93399.09;2036276;28;20091;-82
2022/02/03 06:43:09;;;;;;;59.00;4.78;;;;;;;0.56;100.00;93391.47;2067662;28;20139;-83
2022/02/03 06:44:12;;;;;;;149.55;6.93;;;;;;;0.50;100.00;93393.63;2065364;28;20041;-83
2022/02/03 06:45:29;;;;;;;168.45;8.73;;;;;;;0.43;100.00;93388.97;2063554;28;20038;-83
2022/02/03 06:46:32;;;;;;;69.85;8.13;;;;;;;0.48;100.00;93393.97;2058151;28;20053;-82
2022/02/03 06:47:38;;;;;;;149.48;7.90;;;;;;;0.48;100.00;93390.56;2036049;28;20036;-83
2022/02/03 06:48:42;;;;;;;199.38;11.82;;;;;;;0.49;100.00;93387.59;2038646;28;20044;-83
2022/02/03 06:54:03;;;;;;;116.57;13.98;;;;;;;0.52;100.00;93398.53;2091594;28;20039;-83
2022/02/03 06:55:15;;;;;;;74.60;12.27;;;;;;;0.46;100.00;93398.03;2050739;28;20469;-83
2022/02/03 06:56:30;;;;;;;71.45;14.30;;;;;;;0.45;100.00;93397.28;2054399;28;20114;-83
2022/02/03 06:57:38;;;;;;;157.05;12.80;;;;;;;0.49;100.00;93400.75;2045345;28;20890;-83
2022/02/03 06:58:46;;;;;;;105.05;7.90;;;;;;;0.47;100.00;93410.84;2035006;28;20130;-83
2022/02/03 07:03:55;;;;;;;94.10;5.80;;;;;;;0.46;100.00;93396.16;2109775;28;20048;-81
2022/02/03 07:04:57;;;;;;;51.90;4.93;;;;;;;0.39;100.00;93392.63;2097437;28;20115;-83
2022/02/03 07:05:59;;;;;;;65.72;4.85;;;;;;;0.35;100.00;93395.22;2065865;28;20030;-82
2022/02/03 07:07:01;;;;;;;64.40;5.43;;;;;;;0.39;100.00;93390.00;2051701;28;20145;-83
2022/02/03 07:08:03;;;;;;;131.02;8.30;;;;;;;0.38;100.00;93394.50;2093165;28;20043;-83
2022/02/03 07:09:07;;;;;;;100.63;10.18;;;;;;;0.36;100.00;93396.72;2087131;28;20107;-82
2022/02/03 07:10:10;;;;;;;33.63;7.78;;;;;;;0.36;100.00;93388.06;2083910;28;20033;-82
2022/02/03 07:11:15;;;;;;;60.85;8.20;;;;;;;0.38;100.00;93389.25;2071697;28;20990;-82
2022/02/03 07:12:17;;;;;;;146.57;10.48;;;;;;;0.32;100.00;93389.88;2090566;28;20045;-83
2022/02/03 07:13:18;;;;;;;243.27;10.73;;;;;;;0.27;100.00;93388.28;2068432;28;20034;-82
2022/02/03 07:14:20;;;;;;;203.18;9.05;;;;;;;0.32;100.00;93389.88;2055729;28;20440;-82
2022/02/03 07:15:21;;;;;;;73.15;5.88;;;;;;;0.38;100.00;93391.88;2061576;28;20053;-82
2022/02/03 07:16:22;;;;;;;346.45;10.27;;;;;;;0.29;100.00;93386.03;2066549;28;20076;-84
2022/02/03 07:17:23;;;;;;;27.02;3.88;;;;;;;0.39;100.00;93392.63;2051033;28;20147;-84
2022/02/03 07:18:24;;;;;;;201.90;8.25;;;;;;;0.52;100.00;93388.75;2054066;28;20065;-84
2022/02/03 07:19:25;;;;;;;275.25;12.07;;;;;;;0.46;100.00;93387.53;2049849;28;20055;-83
2022/02/03 07:20:29;;;;;;;299.63;13.32;;;;;;;0.29;100.00;93388.69;2054986;28;20031;-83
2022/02/03 07:21:30;;;;;;;191.13;10.15;;;;;;;0.30;100.00;93389.44;2069882;28;20749;-82
2022/02/03 07:22:31;;;;;;;136.30;6.55;;;;;;;0.41;100.00;93388.56;2048103;28;20051;-84
2022/02/03 07:23:34;;;;;;;136.80;6.05;;;;;;;0.41;100.00;93390.44;2044168;28;20096;-83
2022/02/03 07:24:35;;;;;;;122.68;7.65;;;;;;;0.32;100.00;93388.00;2052194;28;20061;-83
2022/02/03 07:25:37;;;;;;;129.85;5.50;;;;;;;0.30;100.00;93384.94;2051249;28;20058;-83
2022/02/03 07:26:38;;;;;;;326.05;7.35;;;;;;;0.22;100.00;93385.88;2083420;28;20036;-82
2022/02/03 07:27:42;;;;;;;153.63;4.57;;;;;;;0.35;100.00;93387.31;2085989;28;20800;-82
2022/02/03 07:28:43;;;;;;;69.85;4.45;;;;;;;0.37;100.00;93386.97;2055260;28;20066;-85
2022/02/03 07:29:44;;;;;;;240.48;6.30;;;;;;;0.41;100.00;93377.28;2058357;28;20058;-84
2022/02/03 07:30:46;;;;;;;269.58;5.93;;;;;;;0.31;100.00;93383.06;2056630;28;20160;-84
2022/02/03 07:33:47;;;;;;;115.43;3.53;;;;;;;0.48;100.00;93375.56;2065739;28;20050;-83
2022/02/03 07:34:51;;;;;;;171.65;4.15;;;;;;;0.41;100.00;93374.66;2083208;28;20049;-83
2022/02/03 07:35:52;;;;;;;110.82;3.55;;;;;;;0.44;100.00;93376.56;2087176;28;20020;-82
2022/02/03 07:36:53;;;;;;;129.52;3.15;;;;;;;0.43;100.00;93370.56;2084000;28;20885;-83
2022/02/03 07:37:55;;;;;;;157.18;3.67;;;;;;;0.38;100.00;93370.06;2052154;28;20038;-82
2022/02/03 07:38:57;;;;;;;72.95;3.08;;;;;;;0.40;100.00;93375.78;2047461;28;20035;-85
2022/02/03 07:39:58;;;;;;;221.15;6.05;;;;;;;0.29;100.00;93369.50;2054729;28;20362;-82
2022/02/03 07:40:59;;;;;;;241.05;6.18;;;;;;;0.27;100.00;93369.13;2067024;28;20100;-85
2022/02/03 07:42:01;;;;;;;251.48;6.40;;;;;;;0.37;100.00;93368.56;2049938;28;20581;-84
2022/02/03 07:43:05;;;;;;;135.68;4.95;;;;;;;0.48;100.00;93370.31;2051911;28;20035;-83
2022/02/03 07:44:07;;;;;;;141.52;4.15;;;;;;;0.34;100.00;93371.88;2045963;28;20035;-83
2022/02/03 07:45:08;;;;;;;229.10;7.55;;;;;;;0.28;100.00;93373.25;2044371;28;20063;-82
2022/02/03 07:46:09;;;;;;;157.82;6.30;;;;;;;0.26;100.00;93368.31;2059945;28;20060;-82
2022/02/03 07:47:11;;;;;;;268.02;8.18;;;;;;;0.16;100.00;93364.38;2043888;28;20075;-82
2022/02/03 07:48:12;;;;;;;40.83;3.45;;;;;;;0.33;100.00;93365.84;2042369;28;20524;-82
2022/02/03 07:49:12;;;;;;;154.02;9.88;;;;;;;0.54;100.00;93359.50;2047679;28;20141;-84
2022/02/03 07:50:15;;;;;;;160.40;8.45;;;;;;;0.40;100.00;93352.09;2043949;28;20888;-82
2022/02/03 07:51:16;;;;;;;102.10;5.25;;;;;;;0.49;100.00;93347.41;2044401;28;20172;-83
2022/02/03 07:52:17;;;;;;;57.75;4.45;;;;;;;0.50;100.00;93346.28;2051388;28;20039;-82
2022/02/03 07:53:18;;;;;;;88.82;7.25;;;;;;;0.48;100.00;93349.28;2043018;28;20498;-85
2022/02/03 07:54:19;;;;;;;73.95;6.55;;;;;;;0.60;100.00;93350.22;2078444;28;20048;-84
2022/02/03 07:55:21;;;;;;;13.48;3.42;;;;;;;0.50;100.00;93346.28;2043477;28;20439;-83
2022/02/03 07:56:22;;;;;;;103.30;6.20;;;;;;;0.39;100.00;93340.81;2043587;28;20616;-84
2022/02/03 07:57:23;;;;;;;50.85;3.67;;;;;;;0.54;100.00;93341.09;2039750;28;20039;-83
2022/02/03 07:58:24;;;;;;;63.05;3.15;;;;;;;0.54;100.00;93335.84;2050054;28;20085;-83
2022/02/03 07:59:26;;;;;;;48.47;2.55;;;;;;;0.47;100.00;93342.47;2056091;28;20034;-85
2022/02/03 08:00:27;;;;;;;82.78;2.70;;;;;;;0.41;100.00;93348.38;2051792;28;20053;-83
2022/02/03 08:01:28;;;;;;;14.93;1.63;;;;;;;0.52;100.00;93349.31;2064778;28;20050;-83
2022/02/03 08:02:29;;;;;;;64.85;3.97;;;;;;;0.42;100.00;93353.25;2039009;28;20194;-82
2022/02/03 08:03:30;;;;;;;38.63;2.70;;;;;;;0.60;100.00;93340.47;2050639;28;20049;-81
2022/02/03 08:04:32;;;;;;;36.63;2.47;;;;;;;0.67;100.00;93345.88;2074902;28;20474;-82
2022/02/03 08:05:35;;;;;;;37.80;2.45;;;;;;;0.71;100.00;93345.94;2069459;28;20064;-83
2022/02/03 08:06:41;;;;;;;42.80;2.45;;;;;;;0.70;100.00;93336.50;2065505;28;20108;-82
2022/02/03 08:10:55;;;;;;;31.58;2.90;;;;;;;0.72;100.00;93337.69;2078483;28;20047;-84
2022/02/03 08:11:57;;;;;;;3.67;2.08;;;;;;;0.73;100.00;93335.81;2057070;28;20880;-83
2022/02/03 08:13:01;;;;;;;7.05;2.03;;;;;;;0.81;100.00;93334.84;2053480;28;20031;-83
2022/02/03 08:14:11;;;;;;;6.60;2.28;;;;;;;0.89;100.00;93330.47;2073332;28;20029;-82
2022/02/03 08:15:12;;;;;;;12.30;2.13;;;;;;;0.92;100.00;93324.50;2089971;28;20400;-83
2022/02/03 08:16:37;;;;;;;3.42;2.50;;;;;;;1.12;100.00;93320.72;2086034;28;20049;-82
2022/02/03 08:17:40;;;;;;;5.90;1.90;;;;;;;1.09;100.00;93329.31;2093781;28;20056;-82
2022/02/03 08:18:45;;;;;;;7.32;1.95;;;;;;;1.08;100.00;93327.81;2084159;28;20040;-82
2022/02/03 08:22:55;;;;;;;6.15;1.55;;;;;;;1.32;100.00;93315.38;2068473;28;20046;-83
2022/02/03 08:24:32;;;;;;;3.13;1.52;;;;;;;1.26;100.00;93310.44;2065262;28;20757;-83
2022/02/03 08:25:27;;;;;;;3.55;1.90;;;;;;;1.32;100.00;93308.28;2067980;28;20073;-83
2022/02/03 08:31:00;;;;;;;2.60;2.40;;;;;;;1.33;100.00;93301.88;2082808;27;20057;-83
2022/02/03 08:32:12;;;;;;;8.38;2.30;;;;;;;1.38;100.00;93298.97;2057563;28;20180;-84
2022/02/03 08:33:20;;;;;;;2.92;1.80;;;;;;;1.40;100.00;93294.09;2045410;28;20051;-83
2022/02/03 08:34:33;;;;;;;4.35;1.90;;;;;;;1.59;100.00;93290.63;2039359;28;20031;-82
2022/02/03 08:35:45;;;;;;;10.68;1.90;;;;;;;1.44;100.00;93291.50;2040262;28;20185;-82
2022/02/03 08:38:59;;;;;;;5.88;2.75;;;;;;;1.81;100.00;93288.31;2066771;28;20035;-83
2022/02/03 08:40:11;;;;;;;6.25;2.63;;;;;;;1.73;100.00;93285.56;2065176;28;20026;-82
2022/02/03 08:41:13;;;;;;;2.25;2.05;;;;;;;1.66;100.00;93295.22;2054134;28;20062;-83
2022/02/03 08:42:14;;;;;;;2.28;2.03;;;;;;;1.71;100.00;93285.16;2051240;28;20035;-83
2022/02/03 08:43:15;;;;;;;9.07;2.70;;;;;;;1.81;100.00;93294.31;2039342;28;20031;-84
2022/02/03 08:44:16;;;;;;;4.70;2.75;;;;;;;1.59;100.00;93284.59;2051813;28;20196;-84
2022/02/03 08:45:17;;;;;;;7.30;2.67;;;;;;;1.89;100.00;93293.31;2050523;28;20062;-82
2022/02/03 08:46:19;;;;;;;8.98;1.90;;;;;;;2.12;100.00;93282.69;2051433;28;20116;-83
2022/02/03 08:47:20;;;;;;;3.75;2.00;;;;;;;1.88;100.00;93283.09;2093390;28;20043;-83
2022/02/03 08:48:21;;;;;;;4.38;1.55;;;;;;;1.64;100.00;93277.16;2082764;28;20032;-84
2022/02/03 08:49:23;;;;;;;6.43;2.00;;;;;;;2.01;100.00;93284.41;2044146;28;20105;-82
2022/02/03 08:50:24;;;;;;;3.83;1.60;;;;;;;1.86;100.00;93291.38;2041210;28;20047;-84
2022/02/03 08:51:25;;;;;;;3.83;3.40;;;;;;;1.81;100.00;93283.78;2032761;28;20072;-83
2022/02/03 08:52:38;;;;;;;6.03;2.92;;;;;;;1.75;100.00;93283.31;2045916;28;22376;-83
2022/02/03 08:53:47;;;;;;;3.40;3.10;;;;;;;1.72;100.00;93276.13;2055857;28;20169;-83
2022/02/03 08:59:26;;;;;;;13.45;3.05;;;;;;;1.68;100.00;93280.59;2065266;28;20906;-84
2022/02/03 09:34:50;;;;;;;;;;;;;;;1.88;100.00;93233.78;2057902;28;20148;-84
2022/02/03 09:39:06;;;;;;;10.27;1.77;;;;;;;2.20;100.00;93225.53;2054640;28;20117;-83
2022/02/03 09:58:13;;;;;;;2.95;1.55;;;;;;;2.42;100.00;93231.81;2069805;28;20041;-84
2022/02/03 09:59:16;;;;;;;2.70;2.15;;;;;;;2.55;100.00;93219.09;2054743;28;20039;-83
2022/02/03 10:02:58;;;;;;;7.20;4.38;;;;;;;2.60;100.00;93226.69;2061644;28;20037;-82
2022/02/03 10:04:11;;;;;;;6.05;4.38;;;;;;;2.58;100.00;93223.66;2052703;28;20038;-84
2022/02/03 10:05:42;;;;;;;3.05;2.53;;;;;;;2.82;100.00;93209.94;2043434;28;21263;-83
2022/02/03 10:11:58;;;;;;;2.25;2.03;;;;;;;2.87;100.00;93204.31;2063139;28;20054;-83
2022/02/03 10:13:00;;;;;;;2.00;1.85;;;;;;;2.98;100.00;93199.13;2054770;28;20030;-83
2022/02/03 10:14:04;;;;;;;1.83;1.67;;;;;;;2.96;100.00;93196.09;2053972;28;20413;-83
2022/02/03 10:15:07;;;;;;;2.42;2.22;;;;;;;2.90;100.00;93200.97;2060722;28;20030;-85
2022/02/03 10:16:09;;;;;;;1.77;1.65;;;;;;;2.72;100.00;93198.19;2089488;28;20040;-82
2022/02/03 10:17:11;;;;;;;1.90;1.80;;;;;;;2.71;100.00;93190.59;2051043;28;20831;-83
2022/02/03 10:18:21;;;;;;;2.00;1.90;;;;;;;2.81;100.00;93194.44;2043206;28;20830;-83
2022/02/03 10:19:29;;;;;;;2.53;2.13;;;;;;;2.65;100.00;93200.75;2046248;28;20198;-84
2022/02/03 10:20:30;;;;;;;1.90;1.80;;;;;;;2.69;100.00;93196.25;2051516;28;20059;-82
2022/02/03 10:21:33;;;;;;;2.75;1.90;;;;;;;2.73;100.00;93191.78;2056338;28;20034;-83
2022/02/03 10:27:58;;;;;;;2.40;2.20;;;;;;;3.06;100.00;93182.22;2057506;28;20381;-83
2022/02/03 10:29:00;;;;;;;2.72;2.50;;;;;;;3.00;100.00;93181.06;2051076;28;20034;-84
2022/02/03 10:30:12;;;;;;;2.75;2.50;;;;;;;3.36;100.00;93181.28;2068275;28;20082;-84
2022/02/03 10:31:13;;;;;;;2.70;2.40;;;;;;;3.05;100.00;93172.03;2058777;28;20050;-82
2022/02/03 10:32:14;;;;;;;3.95;2.72;;;;;;;2.91;100.00;93170.03;2057327;28;20069;-82
2022/02/03 10:33:15;;;;;;;2.70;2.50;;;;;;;2.97;100.00;93169.31;2062953;28;21279;-83
2022/02/03 10:34:26;;;;;;;2.03;1.83;;;;;;;3.15;100.00;93166.06;2052574;28;20058;-83
2022/02/03 10:43:15;;;;;;;2.50;2.30;;;;;;;3.33;100.00;93159.00;2057318;28;20041;-81
2022/02/03 10:46:02;;;;;;;2.92;2.40;;;;;;;3.44;100.00;93159.09;2050591;28;20720;-83
2022/02/03 11:07:04;;;;;;;4.38;2.63;;;;;;;3.57;100.00;93107.44;2105798;28;20534;-82
2022/02/03 11:08:21;;;;;;;3.17;2.30;;;;;;;3.58;100.00;93100.25;2089928;28;20074;-85
2022/02/03 11:09:37;;;;;;;2.60;2.40;;;;;;;3.39;100.00;93094.16;2075724;28;20072;-85
2022/02/03 11:10:42;;;;;;;2.35;2.13;;;;;;;3.64;100.00;93099.50;2048786;28;20074;-83
2022/02/03 11:11:51;;;;;;;2.60;2.40;;;;;;;3.56;100.00;93100.63;2048942;28;20558;-82
2022/02/03 11:15:49;;;;;;;2.75;2.53;;;;;;;3.45;100.00;93103.22;2063160;28;20054;-84
2022/02/03 11:16:51;;;;;;;3.17;2.70;;;;;;;3.44;100.00;93107.00;2065731;28;20608;-82
2022/02/03 11:17:55;;;;;;;2.45;2.25;;;;;;;3.31;100.00;93111.09;2051958;28;20034;-83
2022/02/03 11:19:02;;;;;;;2.95;2.75;;;;;;;3.40;100.00;93106.22;2064087;28;20074;-83
2022/02/03 11:20:06;;;;;;;3.10;2.80;;;;;;;3.42;100.00;93113.75;2072870;28;20024;-82
2022/02/03 11:21:08;;;;;;;3.40;3.00;;;;;;;3.48;100.00;93120.22;2069924;28;20038;-84
2022/02/03 11:22:11;;;;;;;3.30;3.00;;;;;;;3.61;100.00;93116.13;2049686;28;21475;-83
2022/02/03 11:24:25;;;;;;;2.95;2.70;;;;;;;3.71;100.00;93091.63;2061795;28;20592;-85
2022/02/03 11:25:42;;;;;;;4.00;3.03;;;;;;;3.70;100.00;93078.78;2044555;28;20065;-84
2022/02/03 11:34:26;;;;;;;2.72;2.53;;;;;;;3.41;100.00;93062.81;2092602;28;20056;-82
2022/02/03 11:57:40;;;;;;;5.40;4.90;;;;;;;4.03;100.00;93038.81;2073961;28;20058;-85
2022/02/03 12:07:05;;;;;;;3.80;3.50;;;;;;;3.75;100.00;93001.75;2060211;28;20076;-82
2022/02/03 12:12:22;;;;;;;4.00;3.70;;;;;;;3.89;100.00;93019.53;2082104;28;20041;-84
2022/02/03 12:23:11;;;;;;;4.20;3.80;;;;;;;3.92;100.00;92989.72;2065522;28;20057;-83
2022/02/03 12:25:46;;;;;;;3.78;3.47;;;;;;;3.70;100.00;92992.31;2063949;28;20119;-83
2022/02/03 12:39:20;;;;;;;4.10;3.70;;;;;;;4.16;100.00;92953.81;2070600;28;20411;-84
2022/02/03 12:40:43;;;;;;;4.43;4.03;;;;;;;3.99;100.00;92961.38;2058397;28;20117;-82
2022/02/03 12:42:01;;;;;;;4.10;3.70;;;;;;;4.08;100.00;92961.00;2067868;28;20038;-83
2022/02/03 12:47:50;;;;;;;4.43;4.03;;;;;;;4.08;100.00;92958.34;2066119;28;20046;-83
2022/02/03 12:48:55;;;;;;;4.35;3.90;;;;;;;3.82;100.00;92961.34;2050117;28;20043;-84
2022/02/03 12:49:56;;;;;;;5.50;4.03;;;;;;;3.90;100.00;92954.94;2056699;28;20030;-84
2022/02/03 12:50:59;;;;;;;4.50;3.58;;;;;;;3.95;100.00;92952.69;2045690;28;20047;-84
2022/02/03 12:52:36;;;;;;;4.57;4.00;;;;;;;3.89;100.00;92962.13;2051462;28;20080;-82
2022/02/03 12:53:38;;;;;;;4.25;3.78;;;;;;;4.21;100.00;92956.09;2051339;28;20046;-83
2022/02/03 12:54:39;;;;;;;4.30;3.90;;;;;;;4.12;100.00;92948.53;2042765;28;20548;-84
2022/02/03 12:55:42;;;;;;;4.60;4.20;;;;;;;4.12;100.00;92945.13;2050633;28;20059;-83
2022/02/03 12:56:43;;;;;;;4.50;4.10;;;;;;;4.39;100.00;92942.84;2046270;28;20526;-84
2022/02/03 13:01:47;;;;;;;4.55;4.10;;;;;;;4.14;100.00;92908.50;2068474;28;20054;-82
2022/02/03 13:03:00;;;;;;;4.82;4.43;;;;;;;4.11;100.00;92917.19;2068950;28;20150;-83
2022/02/03 13:04:09;;;;;;;4.75;4.25;;;;;;;4.14;100.00;92913.78;2070876;28;20165;-82
2022/02/03 13:05:12;;;;;;;5.18;4.53;;;;;;;4.42;100.00;92921.66;2070245;28;20046;-84
2022/02/03 13:06:19;;;;;;;4.03;3.72;;;;;;;4.55;100.00;92936.00;2058744;28;20120;-84
2022/02/03 13:07:24;;;;;;;4.22;3.90;;;;;;;4.37;100.00;92934.53;2052872;28;20141;-84
2022/02/03 13:08:46;;;;;;;4.40;4.00;;;;;;;4.19;100.00;92923.97;2045832;28;20102;-82
2022/02/03 13:11:55;;;;;;;4.75;4.35;;;;;;;4.28;100.00;92919.06;2085271;28;20041;-83
2022/02/03 13:13:18;;;;;;;4.60;4.20;;;;;;;4.33;100.00;92912.63;2062895;28;20131;-85
2022/02/03 13:14:28;;;;;;;4.97;4.47;;;;;;;4.16;100.00;92914.16;2052173;28;20046;-84
2022/02/03 13:15:42;;;;;;;4.80;4.30;;;;;;;4.24;100.00;92918.28;2055214;28;20069;-82
2022/02/03 13:22:31;;;;;;;4.57;4.18;;;;;;;4.49;100.00;92907.69;2083043;28;20058;-84
2022/02/03 13:23:20;;;;;;;5.82;4.88;;;;;;;4.59;100.00;92906.88;2070273;28;20875;-82
2022/02/03 13:25:35;;;;;;;4.78;4.28;;;;;;;4.42;100.00;92905.78;2058060;28;20145;-84
2022/02/03 13:26:37;;;;;;;4.18;3.88;;;;;;;4.33;100.00;92923.94;2061710;28;20112;-83
2022/02/03 13:32:53;;;;;;;6.03;5.40;;;;;;;4.27;100.00;92881.25;2068460;28;20034;-83
2022/02/03 13:34:04;;;;;;;5.82;4.82;;;;;;;4.33;100.00;92880.88;2061695;28;20042;-84
2022/02/03 13:35:49;;;;;;;;;;;;;;;4.25;100.00;92875.59;2093598;28;20025;-83
2022/02/03 13:36:48;;;;;;;4.38;3.58;;;;;;;4.47;100.00;92871.00;2065275;28;19918;-83
2022/02/03 13:41:50;;;;;;;5.53;5.03;;;;;;;4.06;100.00;92869.97;2100024;28;20040;-82
2022/02/03 13:43:02;;;;;;;6.20;5.60;;;;;;;4.20;100.00;92867.28;2097617;28;20039;-85
2022/02/03 13:44:11;;;;;;;5.80;5.22;;;;;;;4.26;100.00;92866.53;2069961;28;20023;-83
2022/02/03 13:45:14;;;;;;;4.97;4.47;;;;;;;4.31;100.00;92875.97;2060901;28;20502;-82
2022/02/03 13:46:29;;;;;;;6.05;5.45;;;;;;;4.15;100.00;92867.69;2053026;28;20622;-82
2022/02/03 13:47:35;;;;;;;5.35;4.80;;;;;;;4.02;100.00;92881.28;2051005;28;20497;-81
2022/02/03 13:48:39;;;;;;;5.57;5.00;;;;;;;4.13;100.00;92876.00;2041783;28;20536;-83
2022/02/03 13:49:42;;;;;;;5.68;5.18;;;;;;;4.05;100.00;92882.44;2082462;28;20055;-85
2022/02/03 13:53:58;;;;;;;5.35;4.70;;;;;;;4.07;100.00;92866.16;2108317;28;20502;-82
2022/02/03 14:20:22;;;;;;;6.40;5.78;;;;;;;4.35;100.00;92862.72;2057732;28;20161;-84
2022/02/03 14:22:52;;;;;;;8.10;6.95;;;;;;;4.17;100.00;92871.47;2052184;28;20046;-84
2022/02/03 14:27:54;;;;;;;8.00;6.20;;;;;;;4.13;100.00;92868.06;2074143;28;20157;-84
2022/02/03 14:28:55;;;;;;;7.93;6.13;;;;;;;4.12;100.00;92869.19;2051333;28;20087;-82
2022/02/03 14:30:13;;;;;;;6.15;5.47;;;;;;;4.28;100.00;92874.06;2059205;28;20435;-83
2022/02/03 14:31:14;;;;;;;8.25;6.55;;;;;;;4.18;100.00;92867.69;2051565;28;20051;-84